createdAt,value
2023-04-02T00:00:54.018Z,94376.00
2023-04-02T00:01:54.121Z,94376.00
2023-04-02T00:02:54.201Z,94376.00
2023-04-02T00:03:54.345Z,94376.00
2023-04-02T00:04:54.229Z,94379.00
2023-04-02T00:05:54.159Z,94376.00
2023-04-02T00:06:54.230Z,94378.00
2023-04-02T00:07:54.223Z,94378.00
2023-04-02T00:08:54.193Z,94379.00
2023-04-02T00:09:54.244Z,94376.00
2023-04-02T00:10:54.161Z,94378.00
2023-04-02T00:11:54.164Z,94379.00
2023-04-02T00:12:54.128Z,94381.00
2023-04-02T00:13:54.182Z,94383.00
2023-04-02T00:14:54.120Z,94381.00
2023-04-02T00:15:54.129Z,94383.00
2023-04-02T00:16:54.139Z,94381.00
2023-04-02T00:17:54.175Z,94381.00
2023-04-02T00:18:54.207Z,94385.00
2023-04-02T00:19:54.126Z,94383.00
2023-04-02T00:20:54.128Z,94385.00
2023-04-02T00:21:54.161Z,94385.00
2023-04-02T00:22:54.079Z,94385.00
2023-04-02T00:23:54.092Z,94383.00
2023-04-02T00:24:54.052Z,94383.00
2023-04-02T00:25:54.087Z,94383.00
2023-04-02T00:26:54.174Z,94381.00
2023-04-02T00:27:54.104Z,94385.00
2023-04-02T00:28:54.785Z,94383.00
2023-04-02T00:29:54.121Z,94387.00
2023-04-02T00:30:54.034Z,94385.00
2023-04-02T00:31:54.116Z,94385.00
2023-04-02T00:32:54.174Z,94385.00
2023-04-02T00:33:54.055Z,94385.00
2023-04-02T00:34:54.915Z,94383.00
2023-04-02T00:35:54.109Z,94383.00
2023-04-02T00:36:53.992Z,94387.00
2023-04-02T00:37:54.019Z,94389.00
2023-04-02T00:38:54.005Z,94387.00
2023-04-02T00:39:53.965Z,94391.00
2023-04-02T00:40:54.009Z,94387.00
2023-04-02T00:41:53.993Z,94387.00
2023-04-02T00:43:01.553Z,94387.00
2023-04-02T00:43:53.958Z,94385.00
2023-04-02T00:44:54.011Z,94387.00
2023-04-02T00:45:53.998Z,94383.00
2023-04-02T00:46:53.958Z,94383.00
2023-04-02T00:47:53.975Z,94383.00
2023-04-02T00:48:53.977Z,94381.00
2023-04-02T00:49:53.939Z,94381.00
2023-04-02T00:50:53.957Z,94383.00
2023-04-02T00:51:53.943Z,94379.00
2023-04-02T00:52:53.945Z,94383.00
2023-04-02T00:53:54.925Z,94379.00
2023-04-02T00:54:53.871Z,94383.00
2023-04-02T00:55:53.853Z,94383.00
2023-04-02T00:56:53.914Z,94381.00
2023-04-02T00:57:53.944Z,94381.00
2023-04-02T00:58:53.847Z,94383.00
2023-04-02T00:59:53.851Z,94383.00
2023-04-02T01:00:53.865Z,94381.00
2023-04-02T01:01:53.808Z,94383.00
2023-04-02T01:02:53.978Z,94385.00
2023-04-02T01:03:53.913Z,94385.00
2023-04-02T01:04:53.845Z,94387.00
2023-04-02T01:05:53.929Z,94383.00
2023-04-02T01:06:53.854Z,94383.00
2023-04-02T01:07:53.907Z,94381.00
2023-04-02T01:08:53.835Z,94385.00
2023-04-02T01:09:54.387Z,94385.00
2023-04-02T01:10:53.860Z,94387.00
2023-04-02T01:11:53.882Z,94387.00
2023-04-02T01:12:53.877Z,94389.00
2023-04-02T01:13:53.868Z,94387.00
2023-04-02T01:14:53.868Z,94389.00
2023-04-02T01:15:53.957Z,94395.00
2023-04-02T01:16:54.113Z,94393.00
2023-04-02T01:17:53.919Z,94393.00
2023-04-02T01:18:53.975Z,94395.00
2023-04-02T01:19:53.924Z,94395.00
2023-04-02T01:20:53.945Z,94395.00
2023-04-02T01:21:53.954Z,94395.00
2023-04-02T01:22:54.002Z,94397.00
2023-04-02T01:23:54.006Z,94397.00
2023-04-02T01:24:53.958Z,94395.00
2023-04-02T01:25:53.966Z,94393.00
2023-04-02T01:26:53.968Z,94395.00
2023-04-02T01:27:53.967Z,94395.00
2023-04-02T01:28:53.966Z,94395.00
2023-04-02T01:29:54.051Z,94395.00
2023-04-02T01:30:54.004Z,94397.00
2023-04-02T01:31:53.940Z,94395.00
2023-04-02T01:32:54.020Z,94395.00
2023-04-02T01:33:53.932Z,94391.00
2023-04-02T01:34:54.017Z,94389.00
2023-04-02T01:35:53.960Z,94391.00
2023-04-02T01:36:53.861Z,94393.00
2023-04-02T01:37:53.899Z,94393.00
2023-04-02T01:38:53.885Z,94397.00
2023-04-02T01:39:53.891Z,94399.00
2023-04-02T01:40:53.919Z,94403.00
2023-04-02T01:41:53.879Z,94403.00
2023-04-02T01:42:53.879Z,94403.00
2023-04-02T01:43:54.398Z,94405.00
2023-04-02T01:44:53.894Z,94405.00
2023-04-02T01:45:53.878Z,94401.00
2023-04-02T01:46:55.257Z,94405.00
2023-04-02T01:47:53.980Z,94405.00
2023-04-02T01:48:53.982Z,94403.00
2023-04-02T01:49:53.911Z,94403.00
2023-04-02T01:50:53.896Z,94407.00
2023-04-02T01:51:53.874Z,94407.00
2023-04-02T01:52:54.352Z,94407.00
2023-04-02T01:53:53.902Z,94409.00
2023-04-02T01:54:53.881Z,94411.00
2023-04-02T01:55:53.869Z,94409.00
2023-04-02T01:56:53.994Z,94411.00
2023-04-02T01:57:53.976Z,94411.00
2023-04-02T01:58:53.881Z,94413.00
2023-04-02T01:59:53.976Z,94413.00
2023-04-02T02:00:53.962Z,94413.00
2023-04-02T02:01:53.897Z,94417.00
2023-04-02T02:02:53.948Z,94417.00
2023-04-02T02:03:53.907Z,94417.00
2023-04-02T02:04:53.895Z,94417.00
2023-04-02T02:05:53.907Z,94421.00
2023-04-02T02:06:53.833Z,94421.00
2023-04-02T02:07:53.922Z,94423.00
2023-04-02T02:08:54.025Z,94421.00
2023-04-02T02:09:54.009Z,94421.00
2023-04-02T02:10:54.074Z,94425.00
2023-04-02T02:11:54.012Z,94426.00
2023-04-02T02:12:54.042Z,94425.00
2023-04-02T02:13:54.097Z,94428.00
2023-04-02T02:14:54.184Z,94428.00
2023-04-02T02:15:54.133Z,94426.00
2023-04-02T02:16:54.180Z,94426.00
2023-04-02T02:17:54.338Z,94428.00
2023-04-02T02:18:54.198Z,94426.00
2023-04-02T02:19:54.212Z,94428.00
2023-04-02T02:20:54.169Z,94426.00
2023-04-02T02:21:54.249Z,94428.00
2023-04-02T02:22:54.206Z,94426.00
2023-04-02T02:23:54.177Z,94430.00
2023-04-02T02:24:55.014Z,94432.00
2023-04-02T02:25:54.207Z,94430.00
2023-04-02T02:26:54.265Z,94436.00
2023-04-02T02:27:54.957Z,94440.00
2023-04-02T02:28:54.274Z,94440.00
2023-04-02T02:29:54.292Z,94442.00
2023-04-02T02:30:54.213Z,94442.00
2023-04-02T02:31:54.190Z,94444.00
2023-04-02T02:32:54.370Z,94442.00
2023-04-02T02:33:54.210Z,94446.00
2023-04-02T02:34:54.202Z,94444.00
2023-04-02T02:35:54.161Z,94448.00
2023-04-02T02:36:54.200Z,94450.00
2023-04-02T02:37:54.277Z,94448.00
2023-04-02T02:38:54.520Z,94450.00
2023-04-02T02:39:54.361Z,94456.00
2023-04-02T02:40:54.369Z,94456.00
2023-04-02T02:41:54.386Z,94458.00
2023-04-02T02:42:54.487Z,94460.00
2023-04-02T02:43:54.516Z,94458.00
2023-04-02T02:44:54.589Z,94464.00
2023-04-02T02:45:54.633Z,94462.00
2023-04-02T02:46:54.650Z,94466.00
2023-04-02T02:47:54.738Z,94468.00
2023-04-02T02:48:54.742Z,94468.00
2023-04-02T02:49:54.690Z,94468.00
2023-04-02T02:50:54.656Z,94466.00
2023-04-02T02:51:54.786Z,94468.00
2023-04-02T02:52:54.953Z,94468.00
2023-04-02T02:53:54.866Z,94468.00
2023-04-02T02:54:54.885Z,94468.00
2023-04-02T02:55:54.888Z,94472.00
2023-04-02T02:56:55.014Z,94470.00
2023-04-02T02:57:54.856Z,94470.00
2023-04-02T02:58:54.919Z,94476.00
2023-04-02T02:59:54.840Z,94476.00
2023-04-02T03:00:54.861Z,94472.00
2023-04-02T03:01:54.829Z,94474.00
2023-04-02T03:02:55.061Z,94472.00
2023-04-02T03:03:55.016Z,94474.00
2023-04-02T03:04:54.980Z,94476.00
2023-04-02T03:05:54.965Z,94472.00
2023-04-02T03:06:55.067Z,94476.00
2023-04-02T03:07:55.105Z,94476.00
2023-04-02T03:08:55.137Z,94476.00
2023-04-02T03:09:55.181Z,94476.00
2023-04-02T03:10:55.184Z,94480.00
2023-04-02T03:11:55.222Z,94478.00
2023-04-02T03:12:55.222Z,94476.00
2023-04-02T03:13:55.212Z,94478.00
2023-04-02T03:14:55.228Z,94481.00
2023-04-02T03:15:55.267Z,94483.00
2023-04-02T03:16:55.235Z,94485.00
2023-04-02T03:17:55.342Z,94493.00
2023-04-02T03:18:55.280Z,94493.00
2023-04-02T03:19:55.300Z,94493.00
2023-04-02T03:20:55.256Z,94489.00
2023-04-02T03:21:55.304Z,94493.00
2023-04-02T03:22:55.324Z,94495.00
2023-04-02T03:23:55.305Z,94497.00
2023-04-02T03:24:55.315Z,94497.00
2023-04-02T03:25:55.318Z,94497.00
2023-04-02T03:26:55.411Z,94497.00
2023-04-02T03:27:55.340Z,94499.00
2023-04-02T03:28:55.349Z,94501.00
2023-04-02T03:29:55.414Z,94501.00
2023-04-02T03:30:55.403Z,94503.00
2023-04-02T03:31:55.360Z,94501.00
2023-04-02T03:32:55.401Z,94503.00
2023-04-02T03:33:55.377Z,94505.00
2023-04-02T03:34:55.361Z,94507.00
2023-04-02T03:35:55.344Z,94505.00
2023-04-02T03:36:55.359Z,94505.00
2023-04-02T03:37:55.316Z,94507.00
2023-04-02T03:38:55.301Z,94509.00
2023-04-02T03:39:55.336Z,94509.00
2023-04-02T03:40:55.345Z,94509.00
2023-04-02T03:41:55.329Z,94511.00
2023-04-02T03:42:55.414Z,94511.00
2023-04-02T03:43:55.296Z,94511.00
2023-04-02T03:44:55.295Z,94511.00
2023-04-02T03:45:55.315Z,94515.00
2023-04-02T03:46:55.281Z,94511.00
2023-04-02T03:47:55.290Z,94511.00
2023-04-02T03:48:55.363Z,94509.00
2023-04-02T03:49:55.261Z,94513.00
2023-04-02T03:50:55.263Z,94513.00
2023-04-02T03:51:55.294Z,94511.00
2023-04-02T03:52:55.236Z,94515.00
2023-04-02T03:53:55.280Z,94517.00
2023-04-02T03:54:55.284Z,94515.00
2023-04-02T03:55:55.278Z,94519.00
2023-04-02T03:56:55.410Z,94517.00
2023-04-02T03:57:55.323Z,94519.00
2023-04-02T03:58:55.337Z,94519.00
2023-04-02T03:59:55.270Z,94519.00
2023-04-02T04:00:55.248Z,94519.00
2023-04-02T04:01:55.363Z,94519.00
2023-04-02T04:02:55.374Z,94521.00
2023-04-02T04:03:55.336Z,94519.00
2023-04-02T04:04:55.346Z,94523.00
2023-04-02T04:05:55.236Z,94523.00
2023-04-02T04:06:55.216Z,94523.00
2023-04-02T04:07:55.220Z,94521.00
2023-04-02T04:08:55.282Z,94525.00
2023-04-02T04:09:55.333Z,94527.00
2023-04-02T04:10:55.445Z,94528.00
2023-04-02T04:11:55.413Z,94534.00
2023-04-02T04:12:55.445Z,94528.00
2023-04-02T04:13:55.452Z,94528.00
2023-04-02T04:14:55.553Z,94530.00
2023-04-02T04:15:55.550Z,94532.00
2023-04-02T04:16:55.702Z,94532.00
2023-04-02T04:17:55.616Z,94530.00
2023-04-02T04:18:55.547Z,94534.00
2023-04-02T04:19:55.537Z,94538.00
2023-04-02T04:20:55.492Z,94538.00
2023-04-02T04:21:55.552Z,94538.00
2023-04-02T04:22:55.466Z,94542.00
2023-04-02T04:23:55.478Z,94542.00
2023-04-02T04:24:55.493Z,94544.00
2023-04-02T04:25:55.448Z,94544.00
2023-04-02T04:26:55.486Z,94548.00
2023-04-02T04:27:55.448Z,94552.00
2023-04-02T04:28:55.431Z,94552.00
2023-04-02T04:29:56.411Z,94556.00
2023-04-02T04:30:55.437Z,94558.00
2023-04-02T04:31:55.655Z,94558.00
2023-04-02T04:32:55.452Z,94560.00
2023-04-02T04:33:55.450Z,94562.00
2023-04-02T04:34:55.427Z,94562.00
2023-04-02T04:35:55.398Z,94562.00
2023-04-02T04:36:55.382Z,94560.00
2023-04-02T04:37:55.488Z,94564.00
2023-04-02T04:38:55.388Z,94564.00
2023-04-02T04:39:55.406Z,94566.00
2023-04-02T04:40:55.403Z,94570.00
2023-04-02T04:41:55.406Z,94568.00
2023-04-02T04:42:55.333Z,94570.00
2023-04-02T04:43:55.373Z,94574.00
2023-04-02T04:44:55.445Z,94570.00
2023-04-02T04:45:55.377Z,94574.00
2023-04-02T04:46:55.348Z,94576.00
2023-04-02T04:47:55.391Z,94576.00
2023-04-02T04:48:55.968Z,94574.00
2023-04-02T04:49:55.425Z,94578.00
2023-04-02T04:50:55.418Z,94580.00
2023-04-02T04:51:55.547Z,94580.00
2023-04-02T04:52:55.498Z,94578.00
2023-04-02T04:53:55.527Z,94582.00
2023-04-02T04:54:55.475Z,94583.00
2023-04-02T04:55:55.573Z,94580.00
2023-04-02T04:56:55.449Z,94582.00
2023-04-02T04:57:55.537Z,94585.00
2023-04-02T04:58:55.548Z,94585.00
2023-04-02T04:59:55.455Z,94585.00
2023-04-02T05:00:55.432Z,94585.00
2023-04-02T05:01:55.499Z,94585.00
2023-04-02T05:02:55.417Z,94589.00
2023-04-02T05:03:55.464Z,94591.00
2023-04-02T05:04:55.508Z,94589.00
2023-04-02T05:05:55.391Z,94593.00
2023-04-02T05:06:55.413Z,94593.00
2023-04-02T05:07:56.759Z,94593.00
2023-04-02T05:08:55.529Z,94593.00
2023-04-02T05:09:55.625Z,94595.00
2023-04-02T05:10:55.709Z,94597.00
2023-04-02T05:11:55.693Z,94597.00
2023-04-02T05:12:55.759Z,94597.00
2023-04-02T05:13:55.856Z,94597.00
2023-04-02T05:14:55.857Z,94599.00
2023-04-02T05:15:55.836Z,94597.00
2023-04-02T05:16:55.792Z,94599.00
2023-04-02T05:17:55.891Z,94597.00
2023-04-02T05:18:55.786Z,94601.00
2023-04-02T05:19:55.860Z,94601.00
2023-04-02T05:20:55.757Z,94601.00
2023-04-02T05:21:55.827Z,94595.00
2023-04-02T05:22:55.810Z,94599.00
2023-04-02T05:23:55.768Z,94599.00
2023-04-02T05:24:55.784Z,94599.00
2023-04-02T05:25:55.754Z,94603.00
2023-04-02T05:26:55.743Z,94603.00
2023-04-02T05:27:55.837Z,94609.00
2023-04-02T05:28:55.758Z,94603.00
2023-04-02T05:29:55.706Z,94603.00
2023-04-02T05:30:55.777Z,94603.00
2023-04-02T05:31:55.823Z,94605.00
2023-04-02T05:32:55.831Z,94607.00
2023-04-02T05:33:55.826Z,94609.00
2023-04-02T05:34:55.872Z,94609.00
2023-04-02T05:35:55.904Z,94611.00
2023-04-02T05:36:55.816Z,94611.00
2023-04-02T05:37:55.873Z,94613.00
2023-04-02T05:38:56.004Z,94617.00
2023-04-02T05:39:55.931Z,94621.00
2023-04-02T05:40:55.950Z,94619.00
2023-04-02T05:41:56.004Z,94629.00
2023-04-02T05:42:56.580Z,94631.00
2023-04-02T05:43:56.163Z,94631.00
2023-04-02T05:44:56.237Z,94632.00
2023-04-02T05:45:56.303Z,94631.00
2023-04-02T05:46:56.475Z,94632.00
2023-04-02T05:47:56.443Z,94632.00
2023-04-02T05:48:56.495Z,94634.00
2023-04-02T05:49:56.521Z,94638.00
2023-04-02T05:50:56.526Z,94636.00
2023-04-02T05:51:57.611Z,94638.00
2023-04-02T05:52:56.588Z,94642.00
2023-04-02T05:53:56.624Z,94642.00
2023-04-02T05:54:56.688Z,94642.00
2023-04-02T05:55:56.662Z,94644.00
2023-04-02T05:56:56.730Z,94642.00
2023-04-02T05:58:21.229Z,94644.00
2023-04-02T05:58:57.733Z,94646.00
2023-04-02T05:59:56.661Z,94648.00
2023-04-02T06:00:56.632Z,94648.00
2023-04-02T06:01:56.658Z,94650.00
2023-04-02T06:02:56.780Z,94650.00
2023-04-02T06:03:56.752Z,94648.00
2023-04-02T06:04:56.733Z,94648.00
2023-04-02T06:05:56.658Z,94650.00
2023-04-02T06:06:56.685Z,94646.00
2023-04-02T06:07:56.636Z,94648.00
2023-04-02T06:08:56.642Z,94650.00
2023-04-02T06:09:56.636Z,94648.00
2023-04-02T06:10:57.676Z,94648.00
2023-04-02T06:11:56.768Z,94648.00
2023-04-02T06:12:56.742Z,94646.00
2023-04-02T06:13:56.697Z,94646.00
2023-04-02T06:14:56.751Z,94650.00
2023-04-02T06:15:56.752Z,94650.00
2023-04-02T06:16:56.803Z,94652.00
2023-04-02T06:17:56.726Z,94652.00
2023-04-02T06:18:56.688Z,94658.00
2023-04-02T06:19:56.767Z,94658.00
2023-04-02T06:20:56.672Z,94658.00
2023-04-02T06:21:56.631Z,94654.00
2023-04-02T06:22:56.633Z,94658.00
2023-04-02T06:23:56.786Z,94656.00
2023-04-02T06:24:56.655Z,94658.00
2023-04-02T06:25:56.612Z,94660.00
2023-04-02T06:26:56.671Z,94658.00
2023-04-02T06:27:56.630Z,94660.00
2023-04-02T06:28:56.726Z,94662.00
2023-04-02T06:29:56.640Z,94662.00
2023-04-02T06:30:56.627Z,94664.00
2023-04-02T06:31:56.584Z,94666.00
2023-04-02T06:32:56.634Z,94668.00
2023-04-02T06:33:56.606Z,94670.00
2023-04-02T06:34:56.789Z,94672.00
2023-04-02T06:35:56.690Z,94676.00
2023-04-02T06:36:56.689Z,94674.00
2023-04-02T06:37:56.699Z,94674.00
2023-04-02T06:38:56.754Z,94672.00
2023-04-02T06:39:56.794Z,94672.00
2023-04-02T06:40:58.745Z,94672.00
2023-04-02T06:41:56.800Z,94674.00
2023-04-02T06:42:56.922Z,94672.00
2023-04-02T06:43:56.931Z,94674.00
2023-04-02T06:44:56.992Z,94676.00
2023-04-02T06:45:56.986Z,94680.00
2023-04-02T06:46:58.004Z,94678.00
2023-04-02T06:47:57.182Z,94678.00
2023-04-02T06:48:57.085Z,94678.00
2023-04-02T06:49:57.128Z,94680.00
2023-04-02T06:50:57.019Z,94680.00
2023-04-02T06:51:56.998Z,94680.00
2023-04-02T06:52:57.103Z,94678.00
2023-04-02T06:53:57.018Z,94676.00
2023-04-02T06:54:57.068Z,94678.00
2023-04-02T06:55:57.089Z,94680.00
2023-04-02T06:56:56.962Z,94680.00
2023-04-02T06:57:56.980Z,94680.00
2023-04-02T06:58:56.984Z,94682.00
2023-04-02T06:59:56.955Z,94682.00
2023-04-02T07:00:57.444Z,94682.00
2023-04-02T07:01:57.032Z,94680.00
2023-04-02T07:02:57.067Z,94678.00
2023-04-02T07:03:56.981Z,94676.00
2023-04-02T07:04:57.025Z,94682.00
2023-04-02T07:05:56.914Z,94682.00
2023-04-02T07:06:56.922Z,94680.00
2023-04-02T07:07:56.996Z,94680.00
2023-04-02T07:08:56.913Z,94682.00
2023-04-02T07:09:56.873Z,94678.00
2023-04-02T07:10:56.845Z,94682.00
2023-04-02T07:11:56.876Z,94680.00
2023-04-02T07:12:56.882Z,94678.00
2023-04-02T07:13:56.871Z,94678.00
2023-04-02T07:14:56.849Z,94678.00
2023-04-02T07:15:56.864Z,94678.00
2023-04-02T07:16:56.939Z,94676.00
2023-04-02T07:17:56.889Z,94680.00
2023-04-02T07:18:56.818Z,94682.00
2023-04-02T07:19:56.847Z,94680.00
2023-04-02T07:20:56.817Z,94682.00
2023-04-02T07:21:56.841Z,94682.00
2023-04-02T07:22:56.847Z,94680.00
2023-04-02T07:23:56.887Z,94682.00
2023-04-02T07:24:56.821Z,94680.00
2023-04-02T07:25:56.817Z,94676.00
2023-04-02T07:26:56.789Z,94676.00
2023-04-02T07:27:56.813Z,94676.00
2023-04-02T07:28:56.805Z,94676.00
2023-04-02T07:29:56.800Z,94678.00
2023-04-02T07:30:56.781Z,94682.00
2023-04-02T07:31:56.858Z,94674.00
2023-04-02T07:32:56.900Z,94680.00
2023-04-02T07:33:56.872Z,94678.00
2023-04-02T07:34:56.798Z,94674.00
2023-04-02T07:35:56.812Z,94674.00
2023-04-02T07:36:56.772Z,94672.00
2023-04-02T07:37:56.801Z,94672.00
2023-04-02T07:38:56.831Z,94676.00
2023-04-02T07:39:56.744Z,94678.00
2023-04-02T07:40:56.789Z,94678.00
2023-04-02T07:41:56.790Z,94678.00
2023-04-02T07:42:56.824Z,94683.00
2023-04-02T07:43:56.845Z,94683.00
2023-04-02T07:44:56.878Z,94685.00
2023-04-02T07:45:56.910Z,94683.00
2023-04-02T07:46:56.960Z,94685.00
2023-04-02T07:47:56.979Z,94689.00
2023-04-02T07:48:57.021Z,94687.00
2023-04-02T07:49:57.124Z,94683.00
2023-04-02T07:50:57.030Z,94689.00
2023-04-02T07:51:57.023Z,94689.00
2023-04-02T07:52:57.038Z,94693.00
2023-04-02T07:53:57.051Z,94691.00
2023-04-02T07:54:57.068Z,94693.00
2023-04-02T07:55:57.050Z,94689.00
2023-04-02T07:56:57.098Z,94691.00
2023-04-02T07:57:57.131Z,94691.00
2023-04-02T07:58:57.042Z,94689.00
2023-04-02T07:59:57.159Z,94687.00
2023-04-02T08:00:57.071Z,94685.00
2023-04-02T08:01:57.118Z,94687.00
2023-04-02T08:02:57.239Z,94689.00
2023-04-02T08:03:57.031Z,94689.00
2023-04-02T08:04:57.065Z,94689.00
2023-04-02T08:05:56.903Z,94687.00
2023-04-02T08:06:56.922Z,94687.00
2023-04-02T08:07:57.080Z,94689.00
2023-04-02T08:08:57.009Z,94687.00
2023-04-02T08:09:56.924Z,94691.00
2023-04-02T08:10:57.462Z,94691.00
2023-04-02T08:11:57.636Z,94691.00
2023-04-02T08:12:56.964Z,94691.00
2023-04-02T08:13:56.924Z,94693.00
2023-04-02T08:14:56.969Z,94695.00
2023-04-02T08:15:56.878Z,94693.00
2023-04-02T08:16:56.921Z,94691.00
2023-04-02T08:17:57.005Z,94695.00
2023-04-02T08:18:56.910Z,94689.00
2023-04-02T08:19:56.878Z,94691.00
2023-04-02T08:20:56.991Z,94693.00
2023-04-02T08:21:56.869Z,94691.00
2023-04-02T08:22:56.951Z,94689.00
2023-04-02T08:23:56.970Z,94691.00
2023-04-02T08:24:56.958Z,94693.00
2023-04-02T08:25:56.950Z,94691.00
2023-04-02T08:26:56.960Z,94695.00
2023-04-02T08:27:57.486Z,94695.00
2023-04-02T08:28:57.016Z,94693.00
2023-04-02T08:29:57.283Z,94695.00
2023-04-02T08:30:56.993Z,94699.00
2023-04-02T08:31:56.963Z,94699.00
2023-04-02T08:32:57.017Z,94701.00
2023-04-02T08:33:56.971Z,94697.00
2023-04-02T08:34:56.980Z,94701.00
2023-04-02T08:35:56.916Z,94695.00
2023-04-02T08:36:56.847Z,94693.00
2023-04-02T08:37:56.917Z,94689.00
2023-04-02T08:38:56.973Z,94691.00
2023-04-02T08:39:56.856Z,94693.00
2023-04-02T08:40:57.751Z,94687.00
2023-04-02T08:41:56.950Z,94691.00
2023-04-02T08:42:56.955Z,94689.00
2023-04-02T08:43:56.997Z,94685.00
2023-04-02T08:44:57.199Z,94683.00
2023-04-02T08:45:57.194Z,94685.00
2023-04-02T08:46:57.169Z,94682.00
2023-04-02T08:47:57.241Z,94682.00
2023-04-02T08:48:57.220Z,94680.00
2023-04-02T08:49:57.123Z,94682.00
2023-04-02T08:50:57.072Z,94680.00
2023-04-02T08:51:57.097Z,94682.00
2023-04-02T08:52:57.086Z,94678.00
2023-04-02T08:53:58.069Z,94683.00
2023-04-02T08:54:57.067Z,94678.00
2023-04-02T08:55:58.004Z,94682.00
2023-04-02T08:56:57.931Z,94682.00
2023-04-02T08:57:57.093Z,94680.00
2023-04-02T08:58:56.981Z,94676.00
2023-04-02T08:59:57.046Z,94678.00
2023-04-02T09:00:57.023Z,94678.00
2023-04-02T09:01:57.060Z,94676.00
2023-04-02T09:02:57.023Z,94680.00
2023-04-02T09:03:57.014Z,94676.00
2023-04-02T09:04:57.057Z,94674.00
2023-04-02T09:05:57.092Z,94672.00
2023-04-02T09:06:56.940Z,94674.00
2023-04-02T09:07:57.031Z,94672.00
2023-04-02T09:08:56.977Z,94670.00
2023-04-02T09:09:56.944Z,94670.00
2023-04-02T09:10:56.970Z,94668.00
2023-04-02T09:11:56.945Z,94668.00
2023-04-02T09:12:56.962Z,94668.00
2023-04-02T09:13:56.935Z,94668.00
2023-04-02T09:14:57.462Z,94672.00
2023-04-02T09:15:56.918Z,94670.00
2023-04-02T09:16:56.907Z,94668.00
2023-04-02T09:17:58.986Z,94666.00
2023-04-02T09:18:56.906Z,94666.00
2023-04-02T09:19:56.950Z,94664.00
2023-04-02T09:20:56.961Z,94666.00
2023-04-02T09:21:56.919Z,94664.00
2023-04-02T09:22:56.937Z,94664.00
2023-04-02T09:23:57.002Z,94664.00
2023-04-02T09:24:56.855Z,94662.00
2023-04-02T09:26:04.184Z,94664.00
2023-04-02T09:26:57.881Z,94666.00
2023-04-02T09:27:56.871Z,94664.00
2023-04-02T09:28:56.869Z,94666.00
2023-04-02T09:29:56.894Z,94666.00
2023-04-02T09:30:56.852Z,94670.00
2023-04-02T09:31:56.902Z,94668.00
2023-04-02T09:32:57.038Z,94668.00
2023-04-02T09:33:56.949Z,94670.00
2023-04-02T09:34:56.849Z,94670.00
2023-04-02T09:35:56.861Z,94668.00
2023-04-02T09:36:56.834Z,94666.00
2023-04-02T09:37:56.769Z,94668.00
2023-04-02T09:38:56.902Z,94668.00
2023-04-02T09:39:56.846Z,94662.00
2023-04-02T09:40:56.825Z,94660.00
2023-04-02T09:42:04.915Z,94664.00
2023-04-02T09:42:57.752Z,94664.00
2023-04-02T09:43:56.778Z,94662.00
2023-04-02T09:44:56.772Z,94662.00
2023-04-02T09:45:56.759Z,94658.00
2023-04-02T09:46:56.812Z,94666.00
2023-04-02T09:47:56.782Z,94664.00
2023-04-02T09:48:56.710Z,94664.00
2023-04-02T09:49:56.722Z,94666.00
2023-04-02T09:50:56.953Z,94666.00
2023-04-02T09:51:56.796Z,94660.00
2023-04-02T09:52:56.858Z,94664.00
2023-04-02T09:53:56.894Z,94666.00
2023-04-02T09:54:56.894Z,94666.00
2023-04-02T09:55:56.899Z,94668.00
2023-04-02T09:56:56.989Z,94666.00
2023-04-02T09:57:57.014Z,94668.00
2023-04-02T09:58:57.103Z,94668.00
2023-04-02T09:59:57.060Z,94668.00
2023-04-02T10:00:57.117Z,94674.00
2023-04-02T10:01:57.101Z,94670.00
2023-04-02T10:02:57.145Z,94676.00
2023-04-02T10:03:57.226Z,94676.00
2023-04-02T10:04:57.184Z,94674.00
2023-04-02T10:05:57.280Z,94678.00
2023-04-02T10:06:57.247Z,94674.00
2023-04-02T10:07:57.242Z,94670.00
2023-04-02T10:08:57.313Z,94672.00
2023-04-02T10:09:57.354Z,94674.00
2023-04-02T10:10:57.318Z,94672.00
2023-04-02T10:11:57.261Z,94672.00
2023-04-02T10:12:57.291Z,94672.00
2023-04-02T10:13:57.289Z,94672.00
2023-04-02T10:14:57.356Z,94670.00
2023-04-02T10:15:57.365Z,94668.00
2023-04-02T10:16:57.383Z,94668.00
2023-04-02T10:17:57.324Z,94668.00
2023-04-02T10:18:57.460Z,94668.00
2023-04-02T10:19:57.488Z,94668.00
2023-04-02T10:20:57.443Z,94664.00
2023-04-02T10:21:57.584Z,94664.00
2023-04-02T10:22:57.589Z,94662.00
2023-04-02T10:23:57.720Z,94666.00
2023-04-02T10:24:57.761Z,94668.00
2023-04-02T10:25:57.782Z,94668.00
2023-04-02T10:26:57.842Z,94664.00
2023-04-02T10:27:57.790Z,94662.00
2023-04-02T10:28:57.971Z,94664.00
2023-04-02T10:29:57.877Z,94662.00
2023-04-02T10:30:58.009Z,94664.00
2023-04-02T10:31:58.024Z,94666.00
2023-04-02T10:32:57.968Z,94658.00
2023-04-02T10:33:57.959Z,94668.00
2023-04-02T10:34:58.005Z,94668.00
2023-04-02T10:35:58.018Z,94666.00
2023-04-02T10:36:57.943Z,94666.00
2023-04-02T10:37:57.945Z,94668.00
2023-04-02T10:38:57.984Z,94668.00
2023-04-02T10:39:57.949Z,94670.00
2023-04-02T10:40:57.958Z,94670.00
2023-04-02T10:41:57.977Z,94668.00
2023-04-02T10:42:58.023Z,94666.00
2023-04-02T10:44:06.163Z,94664.00
2023-04-02T10:44:58.982Z,94670.00
2023-04-02T10:45:58.038Z,94668.00
2023-04-02T10:46:58.037Z,94670.00
2023-04-02T10:47:57.964Z,94670.00
2023-04-02T10:48:58.042Z,94668.00
2023-04-02T10:49:58.003Z,94670.00
2023-04-02T10:50:58.008Z,94670.00
2023-04-02T10:51:58.033Z,94670.00
2023-04-02T10:52:58.055Z,94670.00
2023-04-02T10:53:58.022Z,94668.00
2023-04-02T10:54:58.083Z,94670.00
2023-04-02T10:55:58.169Z,94670.00
2023-04-02T10:56:58.295Z,94672.00
2023-04-02T10:57:58.134Z,94674.00
2023-04-02T10:58:58.216Z,94674.00
2023-04-02T10:59:58.269Z,94676.00
2023-04-02T11:00:58.223Z,94674.00
2023-04-02T11:01:58.329Z,94678.00
2023-04-02T11:02:58.344Z,94678.00
2023-04-02T11:03:58.464Z,94676.00
2023-04-02T11:04:59.920Z,94678.00
2023-04-02T11:05:58.461Z,94678.00
2023-04-02T11:07:11.172Z,94676.00
2023-04-02T11:07:59.453Z,94676.00
2023-04-02T11:08:58.431Z,94676.00
2023-04-02T11:09:58.392Z,94678.00
2023-04-02T11:10:58.400Z,94680.00
2023-04-02T11:11:58.394Z,94682.00
2023-04-02T11:12:58.356Z,94680.00
2023-04-02T11:13:58.413Z,94682.00
2023-04-02T11:14:58.353Z,94678.00
2023-04-02T11:15:58.459Z,94682.00
2023-04-02T11:16:58.346Z,94683.00
2023-04-02T11:17:58.426Z,94682.00
2023-04-02T11:18:58.477Z,94682.00
2023-04-02T11:19:58.472Z,94685.00
2023-04-02T11:20:58.475Z,94689.00
2023-04-02T11:21:59.887Z,94687.00
2023-04-02T11:22:58.590Z,94693.00
2023-04-02T11:23:58.624Z,94689.00
2023-04-02T11:24:58.697Z,94689.00
2023-04-02T11:25:58.703Z,94691.00
2023-04-02T11:26:58.730Z,94687.00
2023-04-02T11:27:58.801Z,94689.00
2023-04-02T11:28:58.837Z,94691.00
2023-04-02T11:29:58.853Z,94693.00
2023-04-02T11:30:58.910Z,94693.00
2023-04-02T11:31:58.939Z,94693.00
2023-04-02T11:32:59.023Z,94695.00
2023-04-02T11:33:59.024Z,94695.00
2023-04-02T11:35:06.370Z,94699.00
2023-04-02T11:36:00.057Z,94695.00
2023-04-02T11:36:58.992Z,94703.00
2023-04-02T11:37:58.993Z,94701.00
2023-04-02T11:39:04.603Z,94703.00
2023-04-02T11:39:58.960Z,94703.00
2023-04-02T11:40:59.061Z,94701.00
2023-04-02T11:41:59.020Z,94703.00
2023-04-02T11:42:58.973Z,94703.00
2023-04-02T11:43:58.979Z,94707.00
2023-04-02T11:44:59.012Z,94703.00